West Ferrisburgh, Vermont
Current Conditions -  °F | °C
As of 10:15 AM on Monday 24 Nov 2014 (Local Time) from K6B0 Reporting Station
Drizzle Drizzle  
Wind Chill: 15°   Ceiling: 2200
Heat Index: 15°   Visibility: 7mi
Dew Point: 15°   Wind: 14mph
Humidity: 97%   Direction: 170°S
Pressure: 29.53"   Gusts: 24mph
Location:  44.0804°N, 73.3324°W
Report Text: K6B0 241515Z AUTO 17012G21KT 7SM DZ BKN022 OVC027 15/15 A2953 RMK AO2 P0001 T01500146
Loading
Personal Weather Stations






























Interactive Weather Map New forecast layout! Learn more

10-Day Weather Forecast

Advertisements
Track Severe Weather on mobile